sensor_id;sensor_type;location;lat;lon;timestamp;pressure;altitude;pressure_sealevel;temperature;humidity
9525;BME280;15940;48.734;9.112;2023-06-10T00:00:29;96170.50;;;16.74;62.25
9525;BME280;15940;48.734;9.112;2023-06-10T00:02:57;96165.75;;;16.75;62.04
9525;BME280;15940;48.734;9.112;2023-06-10T00:05:25;96165.56;;;16.73;61.93
9525;BME280;15940;48.734;9.112;2023-06-10T00:07:55;96169.03;;;16.73;62.40
9525;BME280;15940;48.734;9.112;2023-06-10T00:10:23;96165.75;;;16.75;62.46
9525;BME280;15940;48.734;9.112;2023-06-10T00:12:50;96170.31;;;16.72;62.50
9525;BME280;15940;48.734;9.112;2023-06-10T00:15:18;96168.41;;;16.67;62.50
9525;BME280;15940;48.734;9.112;2023-06-10T00:17:45;96169.47;;;16.64;62.91
9525;BME280;15940;48.734;9.112;2023-06-10T00:20:12;96175.50;;;16.63;62.76
9525;BME280;15940;48.734;9.112;2023-06-10T00:22:39;96173.31;;;16.61;62.39
9525;BME280;15940;48.734;9.112;2023-06-10T00:25:07;96163.22;;;16.56;62.90
9525;BME280;15940;48.734;9.112;2023-06-10T00:27:34;96168.16;;;16.57;62.91
9525;BME280;15940;48.734;9.112;2023-06-10T00:30:02;96162.50;;;16.55;63.29
9525;BME280;15940;48.734;9.112;2023-06-10T00:32:33;96159.56;;;16.53;63.21
9525;BME280;15940;48.734;9.112;2023-06-10T00:35:01;96160.31;;;16.54;63.42
9525;BME280;15940;48.734;9.112;2023-06-10T00:37:28;96164.31;;;16.53;63.66
9525;BME280;15940;48.734;9.112;2023-06-10T00:39:56;96164.66;;;16.49;63.51
9525;BME280;15940;48.734;9.112;2023-06-10T00:42:23;96166.44;;;16.47;63.66
9525;BME280;15940;48.734;9.112;2023-06-10T00:44:51;96174.63;;;16.47;63.88
9525;BME280;15940;48.734;9.112;2023-06-10T00:47:18;96170.44;;;16.46;63.87
9525;BME280;15940;48.734;9.112;2023-06-10T00:49:48;96172.44;;;16.45;63.83
9525;BME280;15940;48.734;9.112;2023-06-10T00:52:17;96171.53;;;16.43;63.61
9525;BME280;15940;48.734;9.112;2023-06-10T00:54:45;96161.66;;;16.40;63.83
9525;BME280;15940;48.734;9.112;2023-06-10T00:57:13;96167.13;;;16.40;63.80
9525;BME280;15940;48.734;9.112;2023-06-10T00:59:40;96169.66;;;16.38;64.06
9525;BME280;15940;48.734;9.112;2023-06-10T01:02:07;96176.91;;;16.35;64.11
9525;BME280;15940;48.734;9.112;2023-06-10T01:04:34;96167.59;;;16.31;64.58
9525;BME280;15940;48.734;9.112;2023-06-10T01:07:10;96167.19;;;16.26;64.96
9525;BME280;15940;48.734;9.112;2023-06-10T01:09:47;96158.78;;;16.24;65.22
9525;BME280;15940;48.734;9.112;2023-06-10T01:12:25;96171.00;;;16.23;65.19
9525;BME280;15940;48.734;9.112;2023-06-10T01:14:54;96164.06;;;16.22;64.81
9525;BME280;15940;48.734;9.112;2023-06-10T01:17:22;96158.19;;;16.18;65.32
9525;BME280;15940;48.734;9.112;2023-06-10T01:19:54;96165.13;;;16.19;65.81
9525;BME280;15940;48.734;9.112;2023-06-10T01:22:23;96164.38;;;16.19;65.50
9525;BME280;15940;48.734;9.112;2023-06-10T01:24:52;96160.72;;;16.16;65.23
9525;BME280;15940;48.734;9.112;2023-06-10T01:27:21;96155.06;;;16.14;65.68
9525;BME280;15940;48.734;9.112;2023-06-10T01:29:54;96150.34;;;16.15;65.82
9525;BME280;15940;48.734;9.112;2023-06-10T01:32:32;96154.88;;;16.12;65.50
9525;BME280;15940;48.734;9.112;2023-06-10T01:35:00;96154.66;;;16.10;65.80
9525;BME280;15940;48.734;9.112;2023-06-10T01:37:31;96143.88;;;16.05;66.06
9525;BME280;15940;48.734;9.112;2023-06-10T01:40:00;96150.06;;;16.05;66.03
9525;BME280;15940;48.734;9.112;2023-06-10T01:42:30;96154.81;;;16.05;66.12
9525;BME280;15940;48.734;9.112;2023-06-10T01:44:57;96153.13;;;16.02;66.27
9525;BME280;15940;48.734;9.112;2023-06-10T01:47:24;96157.13;;;16.00;66.33
9525;BME280;15940;48.734;9.112;2023-06-10T01:49:51;96158.19;;;15.97;66.58
9525;BME280;15940;48.734;9.112;2023-06-10T01:52:18;96156.72;;;15.96;66.65
9525;BME280;15940;48.734;9.112;2023-06-10T01:54:46;96165.44;;;15.95;67.04
9525;BME280;15940;48.734;9.112;2023-06-10T01:57:13;96163.03;;;15.91;66.99
9525;BME280;15940;48.734;9.112;2023-06-10T01:59:40;96158.66;;;15.88;66.82
9525;BME280;15940;48.734;9.112;2023-06-10T02:02:10;96152.56;;;15.82;67.30
9525;BME280;15940;48.734;9.112;2023-06-10T02:04:37;96163.72;;;15.84;67.48
9525;BME280;15940;48.734;9.112;2023-06-10T02:07:04;96166.03;;;15.80;67.37
9525;BME280;15940;48.734;9.112;2023-06-10T02:09:32;96172.56;;;15.77;67.21
9525;BME280;15940;48.734;9.112;2023-06-10T02:12:02;96168.91;;;15.75;67.36
9525;BME280;15940;48.734;9.112;2023-06-10T02:14:30;96172.91;;;15.74;67.82
9525;BME280;15940;48.734;9.112;2023-06-10T02:16:57;96177.41;;;15.71;67.74
9525;BME280;15940;48.734;9.112;2023-06-10T02:19:24;96172.47;;;15.69;68.37
9525;BME280;15940;48.734;9.112;2023-06-10T02:21:52;96167.75;;;15.70;68.20
9525;BME280;15940;48.734;9.112;2023-06-10T02:24:19;96176.47;;;15.68;67.87
9525;BME280;15940;48.734;9.112;2023-06-10T02:26:46;96179.94;;;15.69;68.22
9525;BME280;15940;48.734;9.112;2023-06-10T02:29:15;96177.53;;;15.65;68.05
9525;BME280;15940;48.734;9.112;2023-06-10T02:31:41;96182.78;;;15.63;68.46
9525;BME280;15940;48.734;9.112;2023-06-10T02:34:08;96176.88;;;15.59;67.91
9525;BME280;15940;48.734;9.112;2023-06-10T02:36:35;96179.22;;;15.55;68.24
9525;BME280;15940;48.734;9.112;2023-06-10T02:39:02;96184.59;;;15.48;68.36
9525;BME280;15940;48.734;9.112;2023-06-10T02:41:30;96181.66;;;15.46;68.62
9525;BME280;15940;48.734;9.112;2023-06-10T02:43:57;96179.22;;;15.42;68.41
9525;BME280;15940;48.734;9.112;2023-06-10T02:46:25;96187.22;;;15.40;68.66
9525;BME280;15940;48.734;9.112;2023-06-10T02:48:54;96187.31;;;15.34;68.69
9525;BME280;15940;48.734;9.112;2023-06-10T02:51:21;96186.91;;;15.30;68.89
9525;BME280;15940;48.734;9.112;2023-06-10T02:53:48;96189.97;;;15.27;69.05
9525;BME280;15940;48.734;9.112;2023-06-10T02:56:16;96189.53;;;15.23;69.29
9525;BME280;15940;48.734;9.112;2023-06-10T02:58:43;96182.41;;;15.20;69.43
9525;BME280;15940;48.734;9.112;2023-06-10T03:01:11;96188.19;;;15.16;69.51
9525;BME280;15940;48.734;9.112;2023-06-10T03:03:40;96187.44;;;15.15;69.64
9525;BME280;15940;48.734;9.112;2023-06-10T03:06:08;96185.25;;;15.14;69.75
9525;BME280;15940;48.734;9.112;2023-06-10T03:08:35;96188.81;;;15.09;70.04
9525;BME280;15940;48.734;9.112;2023-06-10T03:11:03;96189.34;;;15.07;70.02
9525;BME280;15940;48.734;9.112;2023-06-10T03:13:30;96188.38;;;15.05;69.90
9525;BME280;15940;48.734;9.112;2023-06-10T03:15:57;96191.44;;;15.01;70.06
9525;BME280;15940;48.734;9.112;2023-06-10T03:18:27;96200.16;;;15.00;70.20
9525;BME280;15940;48.734;9.112;2023-06-10T03:20:55;96194.25;;;14.96;70.29
9525;BME280;15940;48.734;9.112;2023-06-10T03:23:23;96198.25;;;14.95;70.61
9525;BME280;15940;48.734;9.112;2023-06-10T03:25:50;96200.97;;;14.95;70.45
9525;BME280;15940;48.734;9.112;2023-06-10T03:28:17;96210.41;;;14.94;70.42
9525;BME280;15940;48.734;9.112;2023-06-10T03:30:44;96211.47;;;14.91;70.82
9525;BME280;15940;48.734;9.112;2023-06-10T03:33:10;96218.41;;;14.92;70.91
9525;BME280;15940;48.734;9.112;2023-06-10T03:35:37;96213.47;;;14.90;70.89
9525;BME280;15940;48.734;9.112;2023-06-10T03:38:06;96212.00;;;14.89;70.78
9525;BME280;15940;48.734;9.112;2023-06-10T03:40:33;96217.97;;;14.88;71.24
9525;BME280;15940;48.734;9.112;2023-06-10T03:43:00;96223.53;;;14.82;71.14
9525;BME280;15940;48.734;9.112;2023-06-10T03:45:27;96221.75;;;14.84;71.46
9525;BME280;15940;48.734;9.112;2023-06-10T03:47:54;96221.00;;;14.84;71.83
9525;BME280;15940;48.734;9.112;2023-06-10T03:50:23;96222.47;;;14.85;71.55
9525;BME280;15940;48.734;9.112;2023-06-10T03:52:50;96218.81;;;14.82;71.57
9525;BME280;15940;48.734;9.112;2023-06-10T03:55:18;96225.41;;;14.87;71.71
9525;BME280;15940;48.734;9.112;2023-06-10T03:57:47;96220.69;;;14.88;71.65
9525;BME280;15940;48.734;9.112;2023-06-10T04:00:16;96222.91;;;14.89;71.65
9525;BME280;15940;48.734;9.112;2023-06-10T04:02:43;96230.56;;;14.91;71.48
9525;BME280;15940;48.734;9.112;2023-06-10T04:05:15;96230.03;;;14.92;72.18
9525;BME280;15940;48.734;9.112;2023-06-10T04:07:43;96226.56;;;14.92;71.90
9525;BME280;15940;48.734;9.112;2023-06-10T04:10:11;96227.00;;;14.96;71.98
9525;BME280;15940;48.734;9.112;2023-06-10T04:12:39;96232.34;;;15.01;72.56
9525;BME280;15940;48.734;9.112;2023-06-10T04:15:07;96226.06;;;15.06;72.54
9525;BME280;15940;48.734;9.112;2023-06-10T04:17:34;96231.94;;;15.10;72.36
9525;BME280;15940;48.734;9.112;2023-06-10T04:20:01;96221.34;;;15.20;72.28
9525;BME280;15940;48.734;9.112;2023-06-10T04:22:32;96229.44;;;15.26;71.86
9525;BME280;15940;48.734;9.112;2023-06-10T04:24:59;96234.22;;;15.33;71.73
9525;BME280;15940;48.734;9.112;2023-06-10T04:27:26;96236.34;;;15.40;71.46
9525;BME280;15940;48.734;9.112;2023-06-10T04:29:54;96237.38;;;15.50;71.25
9525;BME280;15940;48.734;9.112;2023-06-10T04:32:21;96236.94;;;15.59;71.24
9525;BME280;15940;48.734;9.112;2023-06-10T04:34:48;96234.88;;;15.65;70.86
9525;BME280;15940;48.734;9.112;2023-06-10T04:37:15;96242.63;;;15.75;70.93
9525;BME280;15940;48.734;9.112;2023-06-10T04:39:42;96238.50;;;15.81;70.83
9525;BME280;15940;48.734;9.112;2023-06-10T04:42:09;96238.59;;;15.89;70.73
9525;BME280;15940;48.734;9.112;2023-06-10T04:44:36;96242.88;;;15.97;70.37
9525;BME280;15940;48.734;9.112;2023-06-10T04:47:05;96250.63;;;16.07;70.25
9525;BME280;15940;48.734;9.112;2023-06-10T04:49:33;96247.78;;;16.12;70.15
9525;BME280;15940;48.734;9.112;2023-06-10T04:52:01;96244.34;;;16.19;70.10
9525;BME280;15940;48.734;9.112;2023-06-10T04:54:30;96256.44;;;16.24;69.82
9525;BME280;15940;48.734;9.112;2023-06-10T04:56:58;96252.84;;;16.29;69.85
9525;BME280;15940;48.734;9.112;2023-06-10T04:59:25;96247.78;;;16.33;69.27
9525;BME280;15940;48.734;9.112;2023-06-10T05:01:52;96252.38;;;16.38;69.26
9525;BME280;15940;48.734;9.112;2023-06-10T05:04:21;96251.00;;;16.45;69.31
9525;BME280;15940;48.734;9.112;2023-06-10T05:06:48;96256.88;;;16.49;69.10
9525;BME280;15940;48.734;9.112;2023-06-10T05:09:15;96255.25;;;16.53;68.50
9525;BME280;15940;48.734;9.112;2023-06-10T05:11:42;96256.19;;;16.56;68.37
9525;BME280;15940;48.734;9.112;2023-06-10T05:14:10;96256.06;;;16.62;68.49
9525;BME280;15940;48.734;9.112;2023-06-10T05:16:37;96255.19;;;16.67;68.15
9525;BME280;15940;48.734;9.112;2023-06-10T05:19:04;96254.53;;;16.74;67.78
9525;BME280;15940;48.734;9.112;2023-06-10T05:21:32;96258.22;;;16.76;67.96
9525;BME280;15940;48.734;9.112;2023-06-10T05:23:59;96265.75;;;16.83;68.06
9525;BME280;15940;48.734;9.112;2023-06-10T05:26:26;96266.16;;;16.88;68.12
9525;BME280;15940;48.734;9.112;2023-06-10T05:28:54;96263.25;;;16.93;67.81
9525;BME280;15940;48.734;9.112;2023-06-10T05:31:22;96259.66;;;16.98;67.74
9525;BME280;15940;48.734;9.112;2023-06-10T05:33:49;96258.03;;;17.03;68.20
9525;BME280;15940;48.734;9.112;2023-06-10T05:36:15;96264.66;;;17.07;67.34
9525;BME280;15940;48.734;9.112;2023-06-10T05:38:44;96267.59;;;17.09;66.99
9525;BME280;15940;48.734;9.112;2023-06-10T05:41:11;96262.72;;;17.16;67.17
9525;BME280;15940;48.734;9.112;2023-06-10T05:43:37;96268.22;;;17.23;67.82
9525;BME280;15940;48.734;9.112;2023-06-10T05:46:04;96261.50;;;17.32;67.49
9525;BME280;15940;48.734;9.112;2023-06-10T05:48:31;96270.38;;;17.46;67.82
9525;BME280;15940;48.734;9.112;2023-06-10T05:50:58;96274.06;;;17.56;66.92
9525;BME280;15940;48.734;9.112;2023-06-10T05:53:25;96272.28;;;17.66;66.95
9525;BME280;15940;48.734;9.112;2023-06-10T05:55:53;96280.75;;;17.76;66.79
9525;BME280;15940;48.734;9.112;2023-06-10T05:58:23;96274.59;;;17.83;66.72
9525;BME280;15940;48.734;9.112;2023-06-10T06:00:50;96281.75;;;17.93;66.54
9525;BME280;15940;48.734;9.112;2023-06-10T06:03:17;96282.16;;;18.05;66.34
9525;BME280;15940;48.734;9.112;2023-06-10T06:05:44;96280.34;;;18.15;65.68
9525;BME280;15940;48.734;9.112;2023-06-10T06:08:11;96282.56;;;18.24;65.10
9525;BME280;15940;48.734;9.112;2023-06-10T06:10:43;96273.66;;;18.39;64.96
9525;BME280;15940;48.734;9.112;2023-06-10T06:13:11;96278.78;;;18.50;65.21
9525;BME280;15940;48.734;9.112;2023-06-10T06:15:38;96282.63;;;18.63;64.94
9525;BME280;15940;48.734;9.112;2023-06-10T06:18:05;96279.38;;;18.72;64.01
9525;BME280;15940;48.734;9.112;2023-06-10T06:20:32;96295.47;;;18.83;64.46
9525;BME280;15940;48.734;9.112;2023-06-10T06:22:58;96283.06;;;18.90;63.85
9525;BME280;15940;48.734;9.112;2023-06-10T06:25:25;96281.22;;;19.00;63.91
9525;BME280;15940;48.734;9.112;2023-06-10T06:27:52;96288.91;;;19.09;63.35
9525;BME280;15940;48.734;9.112;2023-06-10T06:30:21;96281.00;;;19.13;62.80
9525;BME280;15940;48.734;9.112;2023-06-10T06:32:48;96283.19;;;19.22;63.18
9525;BME280;15940;48.734;9.112;2023-06-10T06:35:14;96277.72;;;19.30;62.57
9525;BME280;15940;48.734;9.112;2023-06-10T06:37:41;96278.41;;;19.46;62.47
9525;BME280;15940;48.734;9.112;2023-06-10T06:40:09;96277.50;;;19.58;61.70
9525;BME280;15940;48.734;9.112;2023-06-10T06:42:36;96279.25;;;19.79;61.22
9525;BME280;15940;48.734;9.112;2023-06-10T06:45:05;96280.47;;;20.01;61.55
9525;BME280;15940;48.734;9.112;2023-06-10T06:47:33;96278.31;;;20.24;60.45
9525;BME280;15940;48.734;9.112;2023-06-10T06:50:00;96291.44;;;20.48;58.92
9525;BME280;15940;48.734;9.112;2023-06-10T06:52:27;96298.34;;;20.82;58.39
9525;BME280;15940;48.734;9.112;2023-06-10T06:54:54;96291.19;;;21.29;58.12
9525;BME280;15940;48.734;9.112;2023-06-10T06:57:21;96295.25;;;21.45;57.30
9525;BME280;15940;48.734;9.112;2023-06-10T06:59:48;96294.13;;;21.65;56.31
9525;BME280;15940;48.734;9.112;2023-06-10T07:02:15;96288.03;;;22.02;55.48
9525;BME280;15940;48.734;9.112;2023-06-10T07:04:43;96295.41;;;21.99;54.82
9525;BME280;15940;48.734;9.112;2023-06-10T07:07:12;96303.22;;;22.10;55.25
9525;BME280;15940;48.734;9.112;2023-06-10T07:09:39;96300.38;;;22.18;54.67
9525;BME280;15940;48.734;9.112;2023-06-10T07:12:07;96302.13;;;22.23;53.88
9525;BME280;15940;48.734;9.112;2023-06-10T07:14:34;96299.13;;;22.29;53.93
9525;BME280;15940;48.734;9.112;2023-06-10T07:17:01;96308.19;;;22.39;54.53
9525;BME280;15940;48.734;9.112;2023-06-10T07:19:28;96306.19;;;22.49;53.87
9525;BME280;15940;48.734;9.112;2023-06-10T07:21:57;96301.03;;;22.63;54.02
9525;BME280;15940;48.734;9.112;2023-06-10T07:24:24;96296.44;;;22.75;53.43
9525;BME280;15940;48.734;9.112;2023-06-10T07:26:51;96293.91;;;22.87;53.29
9525;BME280;15940;48.734;9.112;2023-06-10T07:29:18;96297.88;;;23.03;52.20
9525;BME280;15940;48.734;9.112;2023-06-10T07:31:45;96296.00;;;23.15;53.16
9525;BME280;15940;48.734;9.112;2023-06-10T07:34:11;96293.28;;;23.25;51.70
9525;BME280;15940;48.734;9.112;2023-06-10T07:36:38;96289.78;;;23.24;52.48
9525;BME280;15940;48.734;9.112;2023-06-10T07:39:06;96287.63;;;23.42;52.27
9525;BME280;15940;48.734;9.112;2023-06-10T07:41:34;96287.19;;;23.46;51.22
9525;BME280;15940;48.734;9.112;2023-06-10T07:44:01;96293.44;;;23.46;52.39
9525;BME280;15940;48.734;9.112;2023-06-10T07:46:28;96288.50;;;23.45;50.68
9525;BME280;15940;48.734;9.112;2023-06-10T07:48:55;96298.69;;;23.42;51.31
9525;BME280;15940;48.734;9.112;2023-06-10T07:51:22;96290.25;;;23.50;51.75
9525;BME280;15940;48.734;9.112;2023-06-10T07:53:49;96301.19;;;23.67;51.11
9525;BME280;15940;48.734;9.112;2023-06-10T07:56:17;96295.09;;;23.69;50.34
9525;BME280;15940;48.734;9.112;2023-06-10T07:58:46;96301.06;;;23.75;51.12
9525;BME280;15940;48.734;9.112;2023-06-10T08:01:13;96297.44;;;23.82;50.83
9525;BME280;15940;48.734;9.112;2023-06-10T08:03:40;96290.44;;;23.90;50.90
9525;BME280;15940;48.734;9.112;2023-06-10T08:06:07;96291.00;;;24.08;50.71
9525;BME280;15940;48.734;9.112;2023-06-10T08:08:34;96298.56;;;24.17;50.76
9525;BME280;15940;48.734;9.112;2023-06-10T08:11:05;96294.03;;;24.22;49.98
9525;BME280;15940;48.734;9.112;2023-06-10T08:13:34;96293.03;;;24.37;49.97
9525;BME280;15940;48.734;9.112;2023-06-10T08:16:00;96289.78;;;24.50;51.49
9525;BME280;15940;48.734;9.112;2023-06-10T08:18:27;96294.50;;;24.69;49.37
9525;BME280;15940;48.734;9.112;2023-06-10T08:20:54;96287.75;;;24.82;49.94
9525;BME280;15940;48.734;9.112;2023-06-10T08:23:21;96291.63;;;24.98;48.82
9525;BME280;15940;48.734;9.112;2023-06-10T08:25:48;96286.34;;;25.12;48.10
9525;BME280;15940;48.734;9.112;2023-06-10T08:28:16;96286.06;;;25.29;47.22
9525;BME280;15940;48.734;9.112;2023-06-10T08:30:45;96288.53;;;25.34;47.06
9525;BME280;15940;48.734;9.112;2023-06-10T08:33:12;96288.34;;;25.21;47.45
9525;BME280;15940;48.734;9.112;2023-06-10T08:35:39;96292.34;;;25.29;47.73
9525;BME280;15940;48.734;9.112;2023-06-10T08:38:05;96284.13;;;25.41;47.99
9525;BME280;15940;48.734;9.112;2023-06-10T08:40:33;96290.50;;;25.44;48.74
9525;BME280;15940;48.734;9.112;2023-06-10T08:43:05;96285.31;;;25.59;48.22
9525;BME280;15940;48.734;9.112;2023-06-10T08:45:36;96287.91;;;25.57;47.26
9525;BME280;15940;48.734;9.112;2023-06-10T08:48:06;96284.22;;;25.64;46.02
9525;BME280;15940;48.734;9.112;2023-06-10T08:50:35;96285.66;;;25.66;46.23
9525;BME280;15940;48.734;9.112;2023-06-10T08:53:06;96281.59;;;25.88;46.96
9525;BME280;15940;48.734;9.112;2023-06-10T08:55:36;96291.09;;;26.18;46.65
9525;BME280;15940;48.734;9.112;2023-06-10T08:58:03;96282.50;;;26.14;45.10
9525;BME280;15940;48.734;9.112;2023-06-10T09:00:31;96281.22;;;26.27;45.68
9525;BME280;15940;48.734;9.112;2023-06-10T09:02:59;96290.16;;;26.25;44.96
9525;BME280;15940;48.734;9.112;2023-06-10T09:05:30;96285.44;;;26.28;46.13
9525;BME280;15940;48.734;9.112;2023-06-10T09:08:00;96274.50;;;26.41;45.90
9525;BME280;15940;48.734;9.112;2023-06-10T09:13:00;96276.34;;;26.48;45.43
9525;BME280;15940;48.734;9.112;2023-06-10T09:15:27;96276.13;;;26.68;44.50
9525;BME280;15940;48.734;9.112;2023-06-10T09:17:54;96274.19;;;26.82;43.64
9525;BME280;15940;48.734;9.112;2023-06-10T09:20:22;96272.25;;;26.96;43.30
9525;BME280;15940;48.734;9.112;2023-06-10T09:22:49;96275.00;;;26.61;43.81
9525;BME280;15940;48.734;9.112;2023-06-10T09:25:16;96270.19;;;26.50;45.32
9525;BME280;15940;48.734;9.112;2023-06-10T09:27:47;96276.59;;;26.64;44.77
9525;BME280;15940;48.734;9.112;2023-06-10T09:30:28;96280.59;;;26.85;45.07
9525;BME280;15940;48.734;9.112;2023-06-10T09:32:56;96269.97;;;27.04;44.17
9525;BME280;15940;48.734;9.112;2023-06-10T09:35:24;96269.47;;;26.96;44.02
9525;BME280;15940;48.734;9.112;2023-06-10T09:37:52;96267.31;;;27.07;44.11
9525;BME280;15940;48.734;9.112;2023-06-10T09:40:20;96279.13;;;27.19;44.37
9525;BME280;15940;48.734;9.112;2023-06-10T09:42:53;96269.47;;;27.08;43.46
9525;BME280;15940;48.734;9.112;2023-06-10T09:45:22;96267.53;;;26.87;42.75
9525;BME280;15940;48.734;9.112;2023-06-10T09:47:53;96271.66;;;26.63;43.66
9525;BME280;15940;48.734;9.112;2023-06-10T09:50:21;96271.31;;;26.24;43.98
9525;BME280;15940;48.734;9.112;2023-06-10T09:52:48;96270.72;;;26.25;44.50
9525;BME280;15940;48.734;9.112;2023-06-10T09:55:15;96274.56;;;26.20;44.99
9525;BME280;15940;48.734;9.112;2023-06-10T09:57:43;96268.72;;;26.04;46.00
9525;BME280;15940;48.734;9.112;2023-06-10T10:00:15;96265.00;;;26.44;44.90
9525;BME280;15940;48.734;9.112;2023-06-10T10:02:46;96263.56;;;26.79;43.94
9525;BME280;15940;48.734;9.112;2023-06-10T10:05:16;96262.00;;;27.11;43.80
9525;BME280;15940;48.734;9.112;2023-06-10T10:07:44;96267.00;;;27.38;42.58
9525;BME280;15940;48.734;9.112;2023-06-10T10:10:12;96264.66;;;27.69;41.42
9525;BME280;15940;48.734;9.112;2023-06-10T10:12:41;96265.53;;;27.85;41.18
9525;BME280;15940;48.734;9.112;2023-06-10T10:15:11;96267.28;;;27.79;40.38
9525;BME280;15940;48.734;9.112;2023-06-10T10:17:40;96260.28;;;27.78;41.19
9525;BME280;15940;48.734;9.112;2023-06-10T10:20:16;96255.03;;;28.09;40.32
9525;BME280;15940;48.734;9.112;2023-06-10T10:25:17;96253.91;;;28.40;40.08
9525;BME280;15940;48.734;9.112;2023-06-10T10:27:51;96249.06;;;28.40;39.04
9525;BME280;15940;48.734;9.112;2023-06-10T10:30:20;96248.22;;;28.38;40.63
9525;BME280;15940;48.734;9.112;2023-06-10T10:32:59;96245.25;;;28.22;39.42
9525;BME280;15940;48.734;9.112;2023-06-10T10:35:31;96253.34;;;28.04;40.84
9525;BME280;15940;48.734;9.112;2023-06-10T10:38:00;96254.09;;;28.30;40.82
9525;BME280;15940;48.734;9.112;2023-06-10T10:40:30;96243.41;;;27.87;40.18
9525;BME280;15940;48.734;9.112;2023-06-10T10:42:58;96253.59;;;27.34;41.54
9525;BME280;15940;48.734;9.112;2023-06-10T10:45:28;96243.13;;;26.97;43.22
9525;BME280;15940;48.734;9.112;2023-06-10T10:47:55;96241.81;;;26.75;42.41
9525;BME280;15940;48.734;9.112;2023-06-10T10:50:23;96240.22;;;26.48;42.93
9525;BME280;15940;48.734;9.112;2023-06-10T10:52:54;96239.13;;;26.42;43.29
9525;BME280;15940;48.734;9.112;2023-06-10T10:55:22;96247.84;;;26.60;42.39
9525;BME280;15940;48.734;9.112;2023-06-10T10:57:58;96241.31;;;26.67;43.77
9525;BME280;15940;48.734;9.112;2023-06-10T11:00:29;96242.41;;;26.50;42.57
9525;BME280;15940;48.734;9.112;2023-06-10T11:03:05;96235.34;;;26.26;43.80
9525;BME280;15940;48.734;9.112;2023-06-10T11:05:38;96235.78;;;26.10;43.64
9525;BME280;15940;48.734;9.112;2023-06-10T11:08:06;96237.56;;;25.94;44.13
9525;BME280;15940;48.734;9.112;2023-06-10T11:10:34;96241.03;;;25.83;44.68
9525;BME280;15940;48.734;9.112;2023-06-10T11:13:08;96246.16;;;25.98;44.63
9525;BME280;15940;48.734;9.112;2023-06-10T11:15:39;96234.84;;;26.17;44.01
9525;BME280;15940;48.734;9.112;2023-06-10T11:18:22;96226.31;;;26.25;43.43
9525;BME280;15940;48.734;9.112;2023-06-10T11:21:02;96228.53;;;26.05;43.64
9525;BME280;15940;48.734;9.112;2023-06-10T11:23:39;96232.59;;;25.81;43.42
9525;BME280;15940;48.734;9.112;2023-06-10T11:26:14;96219.88;;;26.11;44.58
9525;BME280;15940;48.734;9.112;2023-06-10T11:29:08;96224.28;;;26.96;43.70
9525;BME280;15940;48.734;9.112;2023-06-10T11:31:49;96229.22;;;27.70;42.09
9525;BME280;15940;48.734;9.112;2023-06-10T11:34:22;96228.91;;;28.03;39.20
9525;BME280;15940;48.734;9.112;2023-06-10T11:36:53;96228.59;;;27.71;41.12
9525;BME280;15940;48.734;9.112;2023-06-10T11:39:21;96228.84;;;27.15;41.72
9525;BME280;15940;48.734;9.112;2023-06-10T11:41:51;96226.69;;;26.78;42.54
9525;BME280;15940;48.734;9.112;2023-06-10T11:44:20;96229.13;;;26.60;43.09
9525;BME280;15940;48.734;9.112;2023-06-10T11:46:48;96222.94;;;26.97;42.35
9525;BME280;15940;48.734;9.112;2023-06-10T11:49:17;96225.13;;;27.10;42.38
9525;BME280;15940;48.734;9.112;2023-06-10T11:51:44;96221.38;;;26.94;41.95
9525;BME280;15940;48.734;9.112;2023-06-10T11:54:15;96222.47;;;26.65;42.33
9525;BME280;15940;48.734;9.112;2023-06-10T11:56:43;96223.19;;;26.77;42.95
9525;BME280;15940;48.734;9.112;2023-06-10T11:59:10;96221.47;;;27.19;42.44
9525;BME280;15940;48.734;9.112;2023-06-10T12:01:43;96216.25;;;27.25;41.31
9525;BME280;15940;48.734;9.112;2023-06-10T12:04:12;96219.53;;;26.98;43.00
9525;BME280;15940;48.734;9.112;2023-06-10T12:06:42;96221.03;;;27.11;42.97
9525;BME280;15940;48.734;9.112;2023-06-10T12:09:20;96208.78;;;27.53;40.48
9525;BME280;15940;48.734;9.112;2023-06-10T12:11:50;96209.25;;;27.61;39.62
9525;BME280;15940;48.734;9.112;2023-06-10T12:14:50;96214.69;;;27.22;39.83
9525;BME280;15940;48.734;9.112;2023-06-10T12:17:21;96210.38;;;27.08;41.85
9525;BME280;15940;48.734;9.112;2023-06-10T12:19:49;96206.97;;;27.58;40.89
9525;BME280;15940;48.734;9.112;2023-06-10T12:22:16;96213.91;;;28.22;39.91
9525;BME280;15940;48.734;9.112;2023-06-10T12:24:45;96199.56;;;28.66;38.39
9525;BME280;15940;48.734;9.112;2023-06-10T12:27:12;96200.09;;;28.63;37.89
9525;BME280;15940;48.734;9.112;2023-06-10T12:29:40;96200.69;;;28.22;39.76
9525;BME280;15940;48.734;9.112;2023-06-10T12:32:19;96204.72;;;27.80;38.93
9525;BME280;15940;48.734;9.112;2023-06-10T12:34:48;96202.94;;;27.36;41.31
9525;BME280;15940;48.734;9.112;2023-06-10T12:37:16;96208.41;;;27.22;40.97
9525;BME280;15940;48.734;9.112;2023-06-10T12:39:51;96205.09;;;27.37;41.48
9525;BME280;15940;48.734;9.112;2023-06-10T12:42:22;96206.22;;;27.32;40.28
9525;BME280;15940;48.734;9.112;2023-06-10T12:44:53;96211.56;;;27.16;41.09
9525;BME280;15940;48.734;9.112;2023-06-10T12:47:29;96203.00;;;26.89;40.50
9525;BME280;15940;48.734;9.112;2023-06-10T12:49:58;96206.66;;;26.68;40.74
9525;BME280;15940;48.734;9.112;2023-06-10T12:52:25;96211.34;;;26.42;41.63
9525;BME280;15940;48.734;9.112;2023-06-10T12:54:53;96209.50;;;26.23;42.98
9525;BME280;15940;48.734;9.112;2023-06-10T12:57:20;96199.00;;;26.10;42.08
9525;BME280;15940;48.734;9.112;2023-06-10T12:59:47;96210.78;;;25.99;43.86
9525;BME280;15940;48.734;9.112;2023-06-10T13:02:18;96201.84;;;25.88;42.56
9525;BME280;15940;48.734;9.112;2023-06-10T13:04:47;96203.19;;;25.87;43.78
9525;BME280;15940;48.734;9.112;2023-06-10T13:07:15;96203.91;;;26.00;42.25
9525;BME280;15940;48.734;9.112;2023-06-10T13:09:42;96199.38;;;26.16;41.53
9525;BME280;15940;48.734;9.112;2023-06-10T13:12:09;96198.34;;;26.56;43.28
9525;BME280;15940;48.734;9.112;2023-06-10T13:14:37;96189.94;;;27.15;42.05
9525;BME280;15940;48.734;9.112;2023-06-10T13:17:05;96193.97;;;27.74;41.28
9525;BME280;15940;48.734;9.112;2023-06-10T13:19:32;96188.13;;;28.21;39.60
9525;BME280;15940;48.734;9.112;2023-06-10T13:22:00;96183.34;;;28.49;38.07